Time;durP1;ratioP1;P1;durP2;ratioP2;P2;SDS_P1;SDS_P2;PMS_P1;PMS_P2;Temp;Humidity;BMP_temperature;BMP_pressure;BME280_temperature;BME280_humidity;BME280_pressure;Samples;Min_cycle;Max_cycle;Signal;HPM_P1;HPM_P2
2021/08/07 00:01:11;;;;;;;53.63;37.67;;;;;;;18.68;84.02;98984.91;5073875;28;20174;-91
2021/08/07 00:03:37;;;;;;;55.03;37.33;;;;;;;18.69;84.23;98978.19;5040238;28;20072;-90
2021/08/07 00:06:04;;;;;;;53.08;37.42;;;;;;;18.65;84.14;98974.56;5057054;28;20070;-90
2021/08/07 00:08:30;;;;;;;55.57;37.40;;;;;;;18.64;84.18;98967.41;5056715;28;20478;-89
2021/08/07 00:10:56;;;;;;;62.03;38.40;;;;;;;18.84;83.85;98984.72;5056817;28;20045;-92
2021/08/07 00:13:22;;;;;;;61.23;38.40;;;;;;;18.70;83.87;98972.25;5056782;28;20093;-92
2021/08/07 00:15:49;;;;;;;48.60;36.15;;;;;;;18.73;83.82;98962.44;5039832;28;20070;-89
2021/08/07 00:18:15;;;;;;;56.37;36.63;;;;;;;18.82;83.39;98979.56;5074113;28;20040;-90
2021/08/07 00:20:42;;;;;;;56.65;36.67;;;;;;;18.72;83.37;98961.63;5039896;28;20053;-90
2021/08/07 00:23:10;;;;;;;53.08;36.53;;;;;;;18.79;83.40;98966.47;5073994;28;20444;-91
2021/08/07 00:25:36;;;;;;;;;;;;;;;18.92;83.62;98997.50;5042104;28;20036;-89
2021/08/07 00:28:03;;;;;;;51.17;36.35;;;;;;;18.83;83.64;98985.91;5076316;28;20286;-90
2021/08/07 00:30:30;;;;;;;58.25;37.20;;;;;;;18.65;83.76;98975.38;5075455;28;20040;-88
2021/08/07 00:32:57;;;;;;;52.60;36.28;;;;;;;18.65;83.62;98966.25;5073423;28;20044;-90
2021/08/07 00:35:23;;;;;;;50.42;36.03;;;;;;;18.71;83.60;98973.88;5073860;28;20044;-89
2021/08/07 00:37:52;;;;;;;54.03;35.55;;;;;;;18.80;83.45;98990.22;5057338;28;20053;-89
2021/08/07 00:40:19;;;;;;;50.95;35.92;;;;;;;18.77;83.63;98990.97;5039922;28;20130;-89
2021/08/07 00:42:51;;;;;;;56.88;36.47;;;;;;;18.80;83.54;98992.19;5056327;28;20048;-90
2021/08/07 00:45:28;;;;;;;48.42;36.35;;;;;;;18.79;83.38;98994.16;5041225;28;20332;-92
2021/08/07 00:47:58;;;;;;;56.72;36.50;;;;;;;18.68;83.48;98971.84;5072968;28;20040;-92
2021/08/07 00:50:25;;;;;;;;;;;;;;;18.89;83.43;99001.81;5040423;28;20047;-90
2021/08/07 00:55:43;;;;;;;47.00;35.40;;;;;;;18.83;83.40;98983.91;5052246;28;20053;-88
2021/08/07 00:58:12;;;;;;;52.30;35.88;;;;;;;18.72;83.26;98964.41;5036136;28;20056;-89
2021/08/07 01:00:39;;;;;;;45.17;35.40;;;;;;;18.89;83.29;98987.97;5034890;28;20162;-88
2021/08/07 01:03:19;;;;;;;50.75;36.22;;;;;;;18.93;83.13;98979.69;5019019;28;20041;-88
2021/08/07 01:05:57;;;;;;;50.05;36.30;;;;;;;18.80;83.13;98956.97;5018013;28;20071;-89
2021/08/07 01:08:28;;;;;;;57.65;36.15;;;;;;;18.81;83.13;98955.00;5034763;28;20040;-88
2021/08/07 01:11:22;;;;;;;56.83;37.47;;;;;;;18.77;83.30;98957.72;5035254;28;20215;-89
2021/08/07 01:13:58;;;;;;;54.42;37.35;;;;;;;18.76;83.54;98947.84;5018909;28;20033;-88
2021/08/07 01:16:29;;;;;;;57.25;37.95;;;;;;;18.75;83.46;98955.34;5019909;28;20123;-89
2021/08/07 01:19:03;;;;;;;55.17;38.00;;;;;;;18.74;83.44;98942.69;5020661;28;20113;-90
2021/08/07 01:21:40;;;;;;;51.42;37.50;;;;;;;18.71;83.37;98948.16;5019184;28;20045;-89
2021/08/07 01:24:28;;;;;;;54.70;38.88;;;;;;;18.52;83.72;98916.66;5051083;28;20087;-88
2021/08/07 01:27:20;;;;;;;56.70;38.42;;;;;;;18.86;83.46;98960.22;5025638;28;20049;-88
2021/08/07 01:29:55;;;;;;;55.60;39.13;;;;;;;18.75;83.26;98949.00;5055914;28;20131;-89
2021/08/07 01:34:53;;;;;;;58.60;39.20;;;;;;;18.71;83.25;98937.88;5071897;28;20036;-89
2021/08/07 01:37:24;;;;;;;55.45;37.88;;;;;;;18.68;83.28;98930.31;5039290;28;20529;-90
2021/08/07 01:40:17;;;;;;;55.55;38.65;;;;;;;18.74;83.21;98930.78;5070552;28;20098;-89
2021/08/07 01:42:54;;;;;;;57.30;37.20;;;;;;;18.74;83.25;98937.16;5039087;28;20039;-88
2021/08/07 01:45:25;;;;;;;50.47;37.75;;;;;;;18.88;82.95;98961.44;5054614;28;20049;-86
2021/08/07 01:48:06;;;;;;;58.15;36.97;;;;;;;18.87;82.85;98948.75;5054646;28;20047;-89
2021/08/07 01:51:04;;;;;;;49.85;35.97;;;;;;;18.71;82.69;98924.03;5041120;28;20054;-89
2021/08/07 01:53:33;;;;;;;50.47;35.83;;;;;;;18.92;82.78;98947.63;5055127;28;20075;-90
2021/08/07 01:56:10;;;;;;;56.63;38.80;;;;;;;18.80;82.81;98934.81;5055783;28;20040;-88
2021/08/07 01:58:45;;;;;;;52.63;37.97;;;;;;;18.70;82.89;98925.19;5063528;28;20205;-88
2021/08/07 02:01:16;;;;;;;56.88;37.28;;;;;;;18.85;82.97;98953.88;5059667;28;20039;-88
2021/08/07 02:03:46;;;;;;;55.92;37.20;;;;;;;18.74;82.78;98933.56;5075478;28;20067;-88
2021/08/07 02:06:14;;;;;;;60.10;37.55;;;;;;;18.89;82.77;98949.19;5059396;28;20103;-89
2021/08/07 02:08:41;;;;;;;54.13;37.63;;;;;;;18.78;82.73;98926.13;5093280;28;20064;-89
2021/08/07 02:11:13;;;;;;;63.30;37.72;;;;;;;18.78;82.81;98939.97;5075933;28;20046;-89
2021/08/07 02:13:41;;;;;;;56.33;37.95;;;;;;;18.82;82.65;98945.53;5074554;28;20049;-89
2021/08/07 02:16:18;;;;;;;57.42;38.72;;;;;;;18.87;83.05;98964.56;5074783;28;20091;-92
2021/08/07 02:18:48;;;;;;;54.42;37.60;;;;;;;18.78;83.09;98957.38;5074639;28;20092;-89
2021/08/07 02:21:17;;;;;;;66.78;39.75;;;;;;;18.87;83.06;98970.13;5074294;28;20043;-88
2021/08/07 02:23:49;;;;;;;59.15;38.53;;;;;;;18.75;82.59;98955.34;5090904;28;20043;-89
2021/08/07 02:26:23;;;;;;;58.20;37.72;;;;;;;18.81;82.63;98958.59;5057664;28;20181;-89
2021/08/07 02:29:08;;;;;;;52.05;37.72;;;;;;;18.86;82.32;98965.75;5090926;28;20420;-88
2021/08/07 02:31:43;;;;;;;56.47;37.38;;;;;;;18.97;82.22;98984.13;5090845;28;20112;-88
2021/08/07 02:34:12;;;;;;;59.25;40.47;;;;;;;18.87;82.28;98943.22;5074301;28;20129;-89
2021/08/07 02:36:40;;;;;;;70.90;40.03;;;;;;;18.90;82.21;98948.00;5091198;28;20520;-88
2021/08/07 02:39:12;;;;;;;65.18;41.35;;;;;;;18.98;82.39;98959.97;5074839;28;20048;-90
2021/08/07 02:41:41;;;;;;;55.65;39.92;;;;;;;18.74;82.53;98934.38;5090704;28;20513;-89
2021/08/07 02:44:09;;;;;;;60.17;40.60;;;;;;;18.78;82.51;98945.50;5074693;28;20047;-89
2021/08/07 02:46:39;;;;;;;61.28;41.20;;;;;;;18.73;82.91;98948.59;5058160;28;20032;-89
2021/08/07 02:49:06;;;;;;;63.85;41.38;;;;;;;18.75;82.91;98966.44;5058872;28;20044;-89
2021/08/07 02:51:35;;;;;;;58.08;40.10;;;;;;;18.69;82.82;98947.72;5076419;28;20525;-89
2021/08/07 02:54:01;;;;;;;56.55;42.03;;;;;;;18.72;82.68;98958.06;5094338;28;20062;-88
2021/08/07 02:56:29;;;;;;;67.05;42.28;;;;;;;18.85;83.03;98964.97;5079503;28;20040;-93
2021/08/07 02:58:56;;;;;;;67.30;41.55;;;;;;;18.78;82.94;98942.72;5077863;28;20040;-88
2021/08/07 03:01:26;;;;;;;68.38;44.38;;;;;;;18.63;83.12;98900.19;5078455;28;20048;-89
2021/08/07 03:03:55;;;;;;;66.25;43.58;;;;;;;18.68;83.44;98894.31;5056109;28;20036;-91
2021/08/07 03:06:23;;;;;;;63.50;45.42;;;;;;;18.51;83.95;98887.41;5058211;28;20570;-89
2021/08/07 03:08:51;;;;;;;61.28;44.28;;;;;;;18.60;84.15;98913.97;5057672;28;20032;-89
2021/08/07 03:11:19;;;;;;;64.70;44.05;;;;;;;18.69;84.00;98944.94;5058062;28;20040;-89
2021/08/07 03:13:47;;;;;;;57.58;43.28;;;;;;;18.50;83.79;98921.75;5073912;28;20421;-88
2021/08/07 03:16:16;;;;;;;62.78;42.33;;;;;;;18.46;83.97;98920.13;5074775;28;20052;-89
2021/08/07 03:18:45;;;;;;;58.83;41.03;;;;;;;18.75;83.89;98954.56;5074175;28;20063;-88
2021/08/07 03:21:14;;;;;;;57.65;41.03;;;;;;;18.80;83.39;98962.50;5073731;28;20044;-88
2021/08/07 03:23:52;;;;;;;66.40;44.40;;;;;;;18.86;83.00;98952.69;5073921;28;20071;-88
2021/08/07 03:26:19;;;;;;;;;;;;;;;19.01;82.87;98973.06;5057062;28;20420;-89
2021/08/07 03:28:45;;;;;;;59.33;40.75;;;;;;;18.98;82.96;98971.06;5073782;28;19927;-88
2021/08/07 03:31:15;;;;;;;58.08;40.00;;;;;;;18.74;82.93;98931.59;5057682;28;20060;-90
2021/08/07 03:33:42;;;;;;;60.13;40.63;;;;;;;18.85;83.14;98945.56;5056934;28;20071;-88
2021/08/07 03:36:11;;;;;;;63.92;40.83;;;;;;;19.06;82.98;98969.94;5057888;28;20036;-88
2021/08/07 03:38:39;;;;;;;60.83;40.67;;;;;;;18.98;83.05;98952.47;5057625;28;20052;-89
2021/08/07 03:41:05;;;;;;;56.08;39.13;;;;;;;18.99;82.83;98937.44;5057794;28;20044;-88
2021/08/07 03:43:31;;;;;;;55.77;39.33;;;;;;;19.25;82.24;98966.22;5057407;28;20074;-89
2021/08/07 03:45:58;;;;;;;53.72;39.03;;;;;;;18.92;82.22;98906.88;5073744;28;20040;-89
2021/08/07 03:48:27;;;;;;;53.45;36.83;;;;;;;19.29;82.13;98955.97;5056525;28;20041;-89
2021/08/07 03:50:56;;;;;;;50.95;35.72;;;;;;;19.32;81.48;98951.63;5074109;28;20048;-89
2021/08/07 03:53:31;;;;;;;61.35;36.25;;;;;;;19.38;81.44;98945.38;5041315;28;20455;-89
2021/08/07 03:55:58;;;;;;;49.05;34.08;;;;;;;19.55;81.20;98952.25;5062600;28;20064;-90
2021/08/07 03:58:25;;;;;;;49.17;34.78;;;;;;;19.69;80.64;98962.69;5044577;28;20127;-89
2021/08/07 04:01:02;;;;;;;63.67;36.08;;;;;;;19.64;80.66;98938.13;5079558;28;20413;-91
2021/08/07 04:03:32;;;;;;;49.95;33.75;;;;;;;19.80;79.93;98943.38;5043548;28;20486;-90
2021/08/07 04:06:02;;;;;;;54.92;33.17;;;;;;;19.91;79.50;98953.38;5041880;28;20522;-91
2021/08/07 04:08:29;;;;;;;54.80;32.80;;;;;;;19.88;78.78;98931.97;5064161;28;20036;-89
2021/08/07 04:10:55;;;;;;;51.60;33.40;;;;;;;19.86;79.17;98928.75;5077950;28;20078;-89
2021/08/07 04:13:23;;;;;;;56.47;33.45;;;;;;;19.95;78.89;98934.00;5096224;28;20063;-89
2021/08/07 04:15:51;;;;;;;52.80;35.65;;;;;;;19.93;79.11;98937.16;5079088;28;20574;-89
2021/08/07 04:18:17;;;;;;;58.58;33.00;;;;;;;20.05;79.39;98941.59;5080267;28;20036;-89
2021/08/07 04:20:46;;;;;;;51.72;33.28;;;;;;;20.02;78.71;98925.72;5094934;28;20051;-88
2021/08/07 04:23:13;;;;;;;58.75;32.90;;;;;;;20.18;78.77;98950.41;5113760;28;20131;-89
2021/08/07 04:25:42;;;;;;;47.25;30.80;;;;;;;20.08;78.26;98926.94;5097123;28;20493;-89
2021/08/07 04:28:08;;;;;;;48.28;31.60;;;;;;;20.10;78.09;98927.38;5094717;28;20559;-89
2021/08/07 04:30:40;;;;;;;70.65;30.70;;;;;;;20.42;77.78;98977.50;5093475;28;20429;-88
2021/08/07 04:33:08;;;;;;;54.80;30.17;;;;;;;20.44;77.58;98968.03;5092676;28;20040;-89
2021/08/07 04:35:39;;;;;;;53.55;28.00;;;;;;;20.48;77.38;98961.28;5075419;28;20105;-89
2021/08/07 04:38:10;;;;;;;54.35;29.13;;;;;;;20.50;76.65;98952.59;5076364;28;20075;-92
2021/08/07 04:40:39;;;;;;;60.08;29.80;;;;;;;20.57;76.97;98949.88;5092520;28;20048;-89
2021/08/07 04:43:11;;;;;;;56.55;29.08;;;;;;;20.49;76.37;98943.44;5092271;28;20067;-89
2021/08/07 04:45:38;;;;;;;89.78;45.15;;;;;;;20.67;76.63;98971.34;5075190;28;20168;-89
2021/08/07 04:48:06;;;;;;;;;;;;;;;20.83;76.33;98990.47;5092455;28;20040;-89
2021/08/07 04:50:58;;;;;;;41.83;28.60;;;;;;;20.72;76.18;98978.50;5092098;28;20027;-89
2021/08/07 04:53:24;;;;;;;56.33;30.30;;;;;;;20.69;76.01;98962.63;5092107;28;20043;-89
2021/08/07 04:55:56;;;;;;;45.85;28.60;;;;;;;20.75;76.02;98972.97;5059414;28;20040;-89
2021/08/07 04:58:23;;;;;;;63.03;32.63;;;;;;;20.81;76.44;98981.72;5093490;28;20040;-93
2021/08/07 05:00:50;;;;;;;51.83;30.27;;;;;;;20.79;76.23;98973.78;5092105;28;20051;-89
2021/08/07 05:03:16;;;;;;;;;;;;;;;21.05;75.27;98999.69;5093652;28;20051;-89
2021/08/07 05:05:44;;;;;;;46.78;27.10;;;;;;;21.04;75.23;98975.88;5093204;28;20006;-88
2021/08/07 05:08:16;;;;;;;43.80;27.83;;;;;;;21.11;75.25;98987.00;5077652;28;20044;-89
2021/08/07 05:10:43;;;;;;;47.58;27.58;;;;;;;21.08;75.07;98965.56;5093890;28;20072;-90
2021/08/07 05:13:11;;;;;;;36.45;25.92;;;;;;;21.08;74.07;98963.56;5063441;28;20045;-89
2021/08/07 05:15:38;;;;;;;71.25;33.67;;;;;;;21.14;74.60;98960.41;5039118;28;20044;-89
2021/08/07 05:18:05;;;;;;;68.63;29.10;;;;;;;21.21;74.76;98980.69;5071117;28;20044;-90
2021/08/07 05:20:32;;;;;;;57.83;28.13;;;;;;;21.15;74.82;98975.91;5054945;28;20071;-88
2021/08/07 05:22:59;;;;;;;44.60;26.52;;;;;;;21.25;74.63;98978.72;5054798;28;20127;-89
2021/08/07 05:25:26;;;;;;;47.40;28.05;;;;;;;21.15;74.16;98950.88;5071563;28;20518;-88
2021/08/07 05:27:53;;;;;;;68.68;29.63;;;;;;;21.29;75.06;98960.06;5054662;28;20399;-88
2021/08/07 05:30:21;;;;;;;53.13;28.88;;;;;;;21.26;74.85;98960.06;5072590;28;20105;-89
2021/08/07 05:32:52;;;;;;;51.72;27.67;;;;;;;21.21;74.85;98963.22;5054771;28;20041;-89
2021/08/07 05:35:18;;;;;;;48.50;27.13;;;;;;;21.15;74.43;98957.25;5054905;28;20041;-89
2021/08/07 05:37:46;;;;;;;73.80;27.75;;;;;;;21.19;75.19;98949.72;5037829;28;20052;-88
2021/08/07 05:40:13;;;;;;;63.53;27.80;;;;;;;21.25;74.78;98945.34;5054688;28;20044;-87
2021/08/07 05:42:43;;;;;;;93.50;28.88;;;;;;;21.48;74.79;98978.41;5071206;28;20043;-94
2021/08/07 05:45:10;;;;;;;;;;;;;;;21.52;74.45;98981.19;5038228;28;20040;-89
2021/08/07 05:47:37;;;;;;;49.65;27.42;;;;;;;21.47;74.11;98962.91;5054276;28;19948;-89
2021/08/07 05:50:07;;;;;;;60.72;26.85;;;;;;;21.42;74.25;98929.13;5070982;28;20498;-89
2021/08/07 05:52:33;;;;;;;93.40;30.05;;;;;;;21.45;73.99;98934.69;5072010;28;20044;-89
2021/08/07 05:55:03;;;;;;;60.15;26.60;;;;;;;21.46;74.49;98932.72;5056380;28;20037;-89
2021/08/07 05:57:30;;;;;;;73.57;28.40;;;;;;;21.43;73.92;98928.75;5055504;28;20140;-88
2021/08/07 05:59:57;;;;;;;68.20;25.83;;;;;;;21.54;74.13;98939.88;5071388;28;20137;-92
2021/08/07 06:02:23;;;;;;;37.13;23.63;;;;;;;21.53;73.17;98914.06;5054492;28;20041;-89
2021/08/07 06:04:52;;;;;;;49.25;25.15;;;;;;;21.80;72.70;98938.69;5055150;28;20048;-89
2021/08/07 06:07:18;;;;;;;;;;;;;;;22.02;73.25;98954.19;5072688;28;20043;-89
2021/08/07 06:09:47;;;;;;;57.70;24.52;;;;;;;22.08;72.84;98946.22;5071141;28;19928;-90
2021/08/07 06:12:14;;;;;;;58.80;22.98;;;;;;;22.15;71.89;98937.06;5054257;28;20043;-89
2021/08/07 06:14:42;;;;;;;70.55;23.05;;;;;;;22.21;72.31;98919.56;5054610;28;20041;-89
2021/08/07 06:17:09;;;;;;;45.30;19.63;;;;;;;22.51;70.86;98938.59;5054546;28;20048;-93
2021/08/07 06:19:38;;;;;;;37.15;19.70;;;;;;;22.73;70.13;98941.31;5037779;28;20044;-91
2021/08/07 06:22:05;;;;;;;47.65;19.77;;;;;;;22.86;69.84;98948.03;5038085;28;20044;-93
2021/08/07 06:24:31;;;;;;;74.15;20.67;;;;;;;23.04;68.68;98952.75;5054648;28;20149;-90
2021/08/07 06:26:58;;;;;;;64.95;19.55;;;;;;;23.01;68.06;98925.69;5038011;28;20045;-90
2021/08/07 06:29:24;;;;;;;51.03;17.60;;;;;;;23.31;67.62;98941.84;5075041;28;20044;-90
2021/08/07 06:31:50;;;;;;;41.17;17.35;;;;;;;23.30;66.28;98915.16;5075420;28;20047;-91
2021/08/07 06:34:18;;;;;;;67.07;18.40;;;;;;;23.47;66.35;98933.78;5076473;28;20060;-92
2021/08/07 06:36:45;;;;;;;52.15;17.02;;;;;;;23.61;66.11;98941.28;5060358;28;20506;-90
2021/08/07 06:39:14;;;;;;;47.85;16.75;;;;;;;23.72;66.27;98932.84;5078651;28;20064;-91
2021/08/07 06:41:40;;;;;;;50.30;17.60;;;;;;;23.73;66.21;98929.63;5057093;28;20043;-91
2021/08/07 06:44:12;;;;;;;73.47;16.88;;;;;;;23.62;66.07;98912.94;5096387;28;20052;-91
2021/08/07 06:46:40;;;;;;;55.78;17.00;;;;;;;23.64;65.76;98916.13;5095304;28;20505;-91
2021/08/07 06:49:08;;;;;;;35.85;16.67;;;;;;;23.67;65.13;98906.94;5078380;28;20453;-90
2021/08/07 06:51:36;;;;;;;65.25;18.42;;;;;;;23.79;65.51;98907.66;5096255;28;20123;-91
2021/08/07 06:54:03;;;;;;;39.50;16.15;;;;;;;23.96;65.37;98915.06;5077962;28;20130;-90
2021/08/07 06:56:32;;;;;;;30.15;14.52;;;;;;;24.10;64.90;98919.72;5078123;28;20040;-92
2021/08/07 06:59:00;;;;;;;56.60;15.60;;;;;;;24.25;63.51;98935.13;5061331;28;20071;-90
2021/08/07 07:01:26;;;;;;;34.05;13.60;;;;;;;24.17;64.25;98925.22;5077594;28;20063;-90
2021/08/07 07:03:53;;;;;;;85.93;17.70;;;;;;;24.16;63.63;98915.28;5077767;28;20040;-91
2021/08/07 07:06:20;;;;;;;35.60;13.30;;;;;;;24.34;64.28;98940.25;5094582;28;20126;-91
2021/08/07 07:08:49;;;;;;;31.38;13.45;;;;;;;24.43;63.70;98956.53;5077977;28;20032;-91
2021/08/07 07:11:17;;;;;;;31.42;12.57;;;;;;;24.32;64.18;98956.63;5094658;28;20050;-91
2021/08/07 07:13:45;;;;;;;;;;;;;;;24.43;63.49;98990.84;5061339;28;20042;-91
2021/08/07 07:16:12;;;;;;;27.88;13.20;;;;;;;24.23;64.40;98987.03;5077431;28;20377;-91
2021/08/07 07:18:38;;;;;;;27.90;12.65;;;;;;;24.20;64.36;98997.03;5073870;28;20074;-90
2021/08/07 07:21:04;;;;;;;22.90;13.25;;;;;;;24.05;65.47;98985.19;5075912;28;20505;-90
2021/08/07 07:23:30;;;;;;;24.60;11.35;;;;;;;23.98;63.44;98962.94;5075877;28;20068;-92
2021/08/07 07:25:57;;;;;;;29.38;10.90;;;;;;;24.05;63.92;98998.38;5042446;28;20064;-89
2021/08/07 07:28:23;;;;;;;23.83;11.40;;;;;;;23.96;65.35;99003.63;5074062;28;20570;-88
2021/08/07 07:30:51;;;;;;;25.52;11.65;;;;;;;23.84;64.75;98979.78;5057514;28;20075;-89
2021/08/07 07:33:19;;;;;;;26.70;12.27;;;;;;;23.96;64.90;99010.00;5073471;28;20413;-90
2021/08/07 07:35:46;;;;;;;30.70;13.07;;;;;;;23.98;64.88;99010.41;5056731;28;20175;-90
2021/08/07 07:38:12;;;;;;;33.78;12.77;;;;;;;23.86;65.09;98991.34;5056800;28;20059;-91
2021/08/07 07:40:41;;;;;;;26.95;11.85;;;;;;;23.97;64.81;98980.88;5055979;28;20051;-89
2021/08/07 07:43:08;;;;;;;27.83;13.20;;;;;;;24.30;64.13;99026.84;5056851;28;20045;-87
2021/08/07 07:45:34;;;;;;;25.70;13.38;;;;;;;24.12;64.32;99007.47;5056543;28;20528;-88
2021/08/07 07:48:04;;;;;;;22.25;11.38;;;;;;;24.35;64.56;99051.56;5037091;28;20048;-88
2021/08/07 07:50:32;;;;;;;26.52;12.32;;;;;;;24.27;63.79;99044.47;5080501;28;20127;-89
2021/08/07 07:52:59;;;;;;;26.83;12.63;;;;;;;24.18;64.88;99044.16;5056043;28;20119;-89
2021/08/07 07:55:27;;;;;;;32.08;13.70;;;;;;;24.24;65.33;99086.38;5056755;28;20037;-91
2021/08/07 07:57:57;;;;;;;24.88;11.63;;;;;;;23.88;65.50;99053.16;5073669;28;20537;-89
2021/08/07 08:00:23;;;;;;;20.55;10.85;;;;;;;23.72;65.17;99024.94;5083176;28;20044;-92
2021/08/07 08:02:53;;;;;;;23.20;11.18;;;;;;;23.83;65.63;99023.66;5060983;28;20448;-90
2021/08/07 08:05:27;;;;;;;19.02;10.73;;;;;;;24.16;65.83;99071.69;5061440;28;20089;-90
2021/08/07 08:07:56;;;;;;;26.00;11.38;;;;;;;23.92;66.36;99060.28;5047401;28;20055;-89
2021/08/07 08:10:23;;;;;;;26.10;10.82;;;;;;;23.77;66.19;99008.53;5062461;28;20068;-92
2021/08/07 08:12:49;;;;;;;31.50;13.55;;;;;;;24.03;66.65;99035.06;5043753;28;20032;-90
2021/08/07 08:15:16;;;;;;;;;;;;;;;24.06;66.53;99053.00;5043142;28;20064;-90
2021/08/07 08:17:42;;;;;;;29.88;12.98;;;;;;;23.73;67.13;99018.16;5072210;28;19962;-89
2021/08/07 08:20:10;;;;;;;38.08;16.27;;;;;;;23.80;67.86;99043.22;5058868;28;20500;-92
2021/08/07 08:22:38;;;;;;;33.28;13.90;;;;;;;23.65;67.32;99022.97;5055673;28;20494;-91
2021/08/07 08:25:07;;;;;;;32.80;12.60;;;;;;;23.71;67.77;99040.06;5041782;28;20123;-94
2021/08/07 08:27:34;;;;;;;37.70;13.55;;;;;;;23.68;68.65;99020.19;5070508;28;20032;-93
2021/08/07 08:30:00;;;;;;;31.73;14.52;;;;;;;23.43;68.92;98983.22;5064538;28;20044;-91
2021/08/07 08:32:26;;;;;;;34.42;15.73;;;;;;;23.64;70.33;99005.44;5083684;28;20032;-84
2021/08/07 08:34:52;;;;;;;33.45;14.52;;;;;;;23.66;70.79;99005.78;5091248;28;20051;-89
2021/08/07 08:37:19;;;;;;;28.75;13.90;;;;;;;23.62;69.89;99005.03;5075596;28;20029;-83
2021/08/07 08:39:46;;;;;;;;;;;;;;;23.60;70.33;98984.31;5074766;28;20067;-83
2021/08/07 08:42:14;;;;;;;35.35;13.63;;;;;;;23.55;70.05;98974.38;5081167;28;19969;-82
2021/08/07 08:44:40;;;;;;;38.35;15.20;;;;;;;23.51;71.11;98954.09;5078732;28;20512;-82
2021/08/07 08:47:08;;;;;;;35.28;15.00;;;;;;;23.72;71.55;98980.28;5073927;28;20227;-85
2021/08/07 08:49:36;;;;;;;35.47;15.77;;;;;;;23.83;70.66;98964.25;5086532;28;20071;-86
2021/08/07 08:52:02;;;;;;;26.80;14.85;;;;;;;23.88;69.18;98941.47;5077858;28;20032;-89
2021/08/07 08:54:29;;;;;;;;;;;;;;;24.25;68.32;98970.66;5074578;28;20044;-84
2021/08/07 08:56:56;;;;;;;28.95;15.18;;;;;;;24.32;68.70;98965.78;5081517;28;19920;-84
2021/08/07 08:59:24;;;;;;;25.85;14.10;;;;;;;24.57;68.41;98970.38;5075850;28;20036;-90
2021/08/07 09:01:53;;;;;;;41.40;14.35;;;;;;;24.74;67.69;98963.00;5070811;28;20047;-89
2021/08/07 09:04:20;;;;;;;26.52;14.20;;;;;;;24.84;66.77;98973.25;5066726;28;20039;-90
2021/08/07 09:06:46;;;;;;;53.20;14.10;;;;;;;24.90;68.15;98970.78;5079299;28;20063;-80
2021/08/07 09:09:13;;;;;;;51.58;15.70;;;;;;;24.95;67.34;98976.69;5079144;28;20047;-80
2021/08/07 09:11:52;;;;;;;34.85;14.30;;;;;;;25.03;66.62;98978.22;5073902;28;20036;-80
2021/08/07 09:14:25;;;;;;;36.72;13.70;;;;;;;25.18;65.98;98981.63;5071616;28;20187;-90
2021/08/07 09:17:00;;;;;;;30.75;11.77;;;;;;;25.24;62.96;98982.75;5082793;28;20463;-90
2021/08/07 09:19:47;;;;;;;25.48;13.10;;;;;;;25.24;64.17;98974.38;5086860;28;20048;-89
2021/08/07 09:22:20;;;;;;;33.20;12.60;;;;;;;25.38;62.91;99001.34;5081143;28;20051;-93
2021/08/07 09:25:05;;;;;;;34.50;12.48;;;;;;;25.40;64.76;99024.13;5072020;28;20040;-92
2021/08/07 09:27:39;;;;;;;27.33;14.73;;;;;;;25.34;65.05;99028.59;5088835;28;20040;-83
2021/08/07 09:30:12;;;;;;;30.45;15.05;;;;;;;25.29;64.19;99024.25;5085243;28;20126;-78
2021/08/07 09:32:46;;;;;;;27.80;15.40;;;;;;;25.26;65.64;99027.09;5092345;28;20617;-81
2021/08/07 09:35:17;;;;;;;30.48;12.65;;;;;;;25.28;65.11;99025.47;5078590;28;20065;-77
2021/08/07 09:37:44;;;;;;;35.58;13.07;;;;;;;25.43;63.98;99023.28;5071749;28;20094;-77
2021/08/07 09:40:12;;;;;;;43.35;13.38;;;;;;;25.55;63.93;99014.28;5071943;28;20132;-88
2021/08/07 09:42:59;;;;;;;28.83;13.05;;;;;;;25.64;64.43;99024.19;5071890;28;20041;-76
2021/08/07 09:45:26;;;;;;;39.30;13.43;;;;;;;25.74;65.14;99026.03;5070531;28;20036;-78
2021/08/07 09:48:01;;;;;;;34.08;12.98;;;;;;;25.78;64.72;99029.56;5070554;28;20257;-76
2021/08/07 09:50:31;;;;;;;32.72;12.73;;;;;;;25.83;63.13;99026.34;5070739;28;20033;-77
2021/08/07 09:53:02;;;;;;;31.58;12.52;;;;;;;25.86;63.90;99024.66;5070240;28;20090;-77
2021/08/07 09:55:30;;;;;;;44.53;13.32;;;;;;;25.82;65.66;99004.34;5071321;28;20176;-77
2021/08/07 09:58:12;;;;;;;83.00;16.45;;;;;;;25.81;64.69;99000.75;5071742;28;20059;-77
2021/08/07 10:00:43;;;;;;;50.72;12.63;;;;;;;25.75;63.74;98985.59;5071898;28;20040;-78
2021/08/07 10:03:21;;;;;;;70.32;15.05;;;;;;;25.77;63.78;98988.78;5070170;28;20036;-81
2021/08/07 10:05:55;;;;;;;85.72;16.02;;;;;;;25.83;63.93;98997.50;5070616;28;20036;-87
2021/08/07 10:08:23;;;;;;;35.75;12.48;;;;;;;25.86;63.29;99019.88;5070653;28;20036;-80
2021/08/07 10:11:08;;;;;;;26.83;12.30;;;;;;;25.92;63.64;99015.38;5071688;28;20044;-80
2021/08/07 10:13:36;;;;;;;30.17;12.35;;;;;;;26.00;63.50;99016.84;5070158;28;20040;-81
2021/08/07 10:16:10;;;;;;;29.55;10.95;;;;;;;26.06;63.22;99017.16;5070578;28;20556;-81
2021/08/07 10:18:38;;;;;;;28.92;11.25;;;;;;;26.10;62.00;99017.09;5071573;28;20620;-80
2021/08/07 10:21:05;;;;;;;24.25;11.85;;;;;;;26.20;62.31;99022.53;5071182;28;20045;-81
2021/08/07 10:23:33;;;;;;;27.58;11.05;;;;;;;26.38;60.58;99032.63;5054085;28;20502;-80
2021/08/07 10:26:01;;;;;;;24.13;11.10;;;;;;;26.47;61.44;99032.88;5070412;28;20056;-81
2021/08/07 10:28:34;;;;;;;25.15;10.32;;;;;;;26.59;59.54;99031.47;5070324;28;20045;-80
2021/08/07 10:31:02;;;;;;;26.13;11.05;;;;;;;26.82;60.07;99041.88;5070386;28;20044;-89
2021/08/07 10:33:32;;;;;;;24.13;11.18;;;;;;;27.03;57.35;99040.69;5071204;28;20494;-77
2021/08/07 10:35:59;;;;;;;33.88;12.00;;;;;;;27.25;56.74;99050.28;5071446;28;20135;-78
2021/08/07 10:38:25;;;;;;;40.30;11.95;;;;;;;27.22;56.63;99041.91;5069932;28;20049;-77
2021/08/07 10:40:53;;;;;;;26.35;11.63;;;;;;;27.07;55.96;99039.38;5070261;28;20048;-78
2021/08/07 10:43:22;;;;;;;25.30;13.35;;;;;;;27.08;56.54;99043.75;5070518;28;20048;-78
2021/08/07 10:45:49;;;;;;;39.47;15.77;;;;;;;27.06;57.78;99039.81;5087163;28;20039;-78
2021/08/07 10:48:37;;;;;;;55.80;26.30;;;;;;;27.08;57.81;99024.13;5090207;28;20077;-78
2021/08/07 10:51:36;;;;;;;41.45;17.52;;;;;;;27.10;57.92;99024.47;5091415;28;20413;-78
2021/08/07 10:54:17;;;;;;;41.28;20.33;;;;;;;27.17;57.15;99026.38;5078423;28;20047;-79
2021/08/07 10:56:44;;;;;;;51.63;20.73;;;;;;;27.10;57.11;99026.50;5091298;28;20421;-86
2021/08/07 10:59:10;;;;;;;56.03;22.80;;;;;;;27.02;57.98;99022.25;5091393;28;20040;-78
2021/08/07 11:01:39;;;;;;;42.28;17.80;;;;;;;26.87;59.15;99028.16;5091511;28;20044;-78
2021/08/07 11:04:21;;;;;;;26.85;12.60;;;;;;;26.73;56.73;99047.28;5091289;28;20601;-78
2021/08/07 11:07:36;;;;;;;34.40;13.27;;;;;;;26.44;60.84;99033.72;5110095;27;20421;-78
2021/08/07 11:10:15;;;;;;;60.30;18.17;;;;;;;26.18;63.02;99022.16;5110295;28;20043;-78
2021/08/07 11:12:45;;;;;;;58.03;21.08;;;;;;;25.92;65.55;99039.78;5109885;28;20044;-79
2021/08/07 11:15:29;;;;;;;58.55;20.45;;;;;;;25.71;63.42;99041.66;5109566;28;20096;-78
2021/08/07 11:17:57;;;;;;;43.78;18.33;;;;;;;25.51;64.88;99047.16;5109525;28;20126;-78
2021/08/07 11:20:39;;;;;;;45.10;19.45;;;;;;;25.36;67.16;99025.38;5109574;28;20047;-78
2021/08/07 11:23:07;;;;;;;40.25;19.33;;;;;;;25.35;66.16;99023.78;5109576;28;20036;-77
2021/08/07 11:25:53;;;;;;;62.88;20.15;;;;;;;25.34;68.04;99022.22;5109181;28;20515;-76
2021/08/07 11:28:21;;;;;;;;;;;;;;;25.44;68.64;99027.66;5109400;28;20564;-78
2021/08/07 11:30:48;;;;;;;52.95;19.42;;;;;;;25.45;66.51;99012.44;5109047;28;19916;-86
2021/08/07 11:33:14;;;;;;;52.53;19.30;;;;;;;25.54;65.70;99032.31;5108109;28;20044;-78
2021/08/07 11:35:43;;;;;;;60.20;26.58;;;;;;;25.55;69.99;99036.69;5109088;28;20052;-78
2021/08/07 11:38:16;;;;;;;52.33;21.38;;;;;;;25.48;68.79;99038.78;5109063;28;20067;-77
2021/08/07 11:40:55;;;;;;;50.65;22.10;;;;;;;25.47;69.37;99042.81;5108996;28;20051;-78